createdAt,value
2017-11-17T00:00:16.526Z,29.13
2017-11-17T00:02:44.053Z,29.93
2017-11-17T00:05:12.741Z,31.60
2017-11-17T00:07:42.519Z,29.07
2017-11-17T00:10:11.929Z,28.87
2017-11-17T00:12:39.470Z,28.70
2017-11-17T00:15:07.060Z,29.70
2017-11-17T00:17:37.386Z,27.97
2017-11-17T00:20:05.207Z,25.90
2017-11-17T00:22:32.760Z,27.07
2017-11-17T00:25:00.287Z,25.40
2017-11-17T00:27:28.428Z,27.30
2017-11-17T00:29:56.003Z,25.20
2017-11-17T00:32:24.169Z,25.97
2017-11-17T00:34:52.288Z,25.70
2017-11-17T00:37:19.963Z,27.40
2017-11-17T00:39:47.466Z,25.07
2017-11-17T00:42:15.810Z,26.53
2017-11-17T00:44:43.443Z,25.23
2017-11-17T00:47:12.034Z,25.30
2017-11-17T00:49:39.597Z,25.40
2017-11-17T00:52:07.154Z,25.80
2017-11-17T00:54:34.729Z,26.30
2017-11-17T00:57:02.935Z,25.97
2017-11-17T00:59:30.487Z,24.73
2017-11-17T01:01:58.027Z,24.70
2017-11-17T01:04:25.570Z,22.50
2017-11-17T01:06:53.094Z,24.30
2017-11-17T01:09:21.886Z,25.93
2017-11-17T01:11:51.690Z,25.10
2017-11-17T01:14:20.015Z,24.53
2017-11-17T01:16:47.545Z,22.47
2017-11-17T01:19:15.372Z,24.47
2017-11-17T01:21:42.988Z,24.47
2017-11-17T01:24:12.274Z,22.63
2017-11-17T01:26:39.848Z,24.40
2017-11-17T01:29:08.086Z,22.93
2017-11-17T01:31:35.644Z,21.57
2017-11-17T01:34:03.179Z,24.60
2017-11-17T01:36:30.741Z,22.23
2017-11-17T01:38:58.275Z,21.63
2017-11-17T01:41:25.814Z,23.47
2017-11-17T01:43:53.371Z,22.33
2017-11-17T01:46:20.891Z,23.70
2017-11-17T01:48:48.420Z,22.40
2017-11-17T01:51:15.964Z,22.10
2017-11-17T01:53:43.449Z,21.67
2017-11-17T01:56:10.976Z,22.03
2017-11-17T01:58:38.646Z,21.60
2017-11-17T02:01:06.213Z,21.90
2017-11-17T02:03:33.821Z,23.00
2017-11-17T02:06:01.348Z,20.53
2017-11-17T02:08:28.917Z,19.80
2017-11-17T02:10:56.425Z,23.07
2017-11-17T02:13:23.959Z,22.57
2017-11-17T02:15:51.504Z,22.80
2017-11-17T02:18:19.020Z,20.93
2017-11-17T02:20:46.578Z,20.27
2017-11-17T02:23:14.142Z,20.37
2017-11-17T02:25:41.727Z,20.60
2017-11-17T02:28:10.083Z,19.37
2017-11-17T02:30:37.589Z,18.93
2017-11-17T02:33:05.122Z,18.60
2017-11-17T02:35:32.673Z,19.67
2017-11-17T02:38:00.215Z,17.97
2017-11-17T02:40:27.747Z,19.13
2017-11-17T02:42:55.302Z,16.10
2017-11-17T02:45:22.902Z,17.03
2017-11-17T02:47:50.423Z,18.40
2017-11-17T02:50:18.700Z,18.57
2017-11-17T02:52:47.049Z,18.83
2017-11-17T02:55:14.952Z,19.87
2017-11-17T02:57:42.742Z,19.57
2017-11-17T03:00:11.073Z,19.03
2017-11-17T03:02:38.787Z,19.80
2017-11-17T03:05:07.123Z,19.43
2017-11-17T03:07:36.152Z,21.83
2017-11-17T03:10:03.762Z,20.17
2017-11-17T03:12:34.225Z,19.10
2017-11-17T03:15:01.796Z,19.40
2017-11-17T03:17:29.310Z,20.03
2017-11-17T03:19:56.867Z,20.03
2017-11-17T03:22:24.570Z,18.70
2017-11-17T03:24:52.099Z,19.53
2017-11-17T03:27:19.691Z,19.20
2017-11-17T03:29:47.289Z,19.70
2017-11-17T03:32:16.091Z,21.37
2017-11-17T03:34:43.721Z,19.10
2017-11-17T03:37:11.246Z,18.43
2017-11-17T03:39:39.385Z,19.97
2017-11-17T03:42:07.581Z,18.17
2017-11-17T03:44:35.870Z,19.23
2017-11-17T03:47:03.396Z,19.90
2017-11-17T03:49:31.003Z,19.40
2017-11-17T03:51:58.542Z,18.70
2017-11-17T03:54:26.898Z,20.40
2017-11-17T03:56:54.458Z,18.37
2017-11-17T03:59:22.049Z,17.70
2017-11-17T04:01:50.681Z,18.97
2017-11-17T04:04:18.259Z,17.47
2017-11-17T04:06:46.286Z,18.70
2017-11-17T04:09:13.856Z,17.90
2017-11-17T04:11:42.289Z,19.07
2017-11-17T04:14:10.628Z,17.40
2017-11-17T04:16:39.523Z,17.73
2017-11-17T04:19:07.041Z,17.80
2017-11-17T04:21:35.330Z,17.60
2017-11-17T04:24:02.850Z,16.90
2017-11-17T04:26:31.170Z,17.00
2017-11-17T04:28:58.711Z,17.43
2017-11-17T04:31:27.016Z,18.33
2017-11-17T04:33:54.595Z,17.27
2017-11-17T04:36:22.102Z,17.37
2017-11-17T04:38:50.112Z,17.20
2017-11-17T04:41:17.849Z,16.50
2017-11-17T04:43:45.400Z,16.50
2017-11-17T04:46:13.692Z,17.93
2017-11-17T04:48:41.274Z,16.80
2017-11-17T04:51:08.801Z,16.60
2017-11-17T04:53:36.304Z,16.23
2017-11-17T04:56:03.896Z,16.90
2017-11-17T04:58:34.728Z,19.13
2017-11-17T05:01:03.321Z,17.20
2017-11-17T05:03:31.436Z,17.83
2017-11-17T05:05:59.016Z,19.30
2017-11-17T05:08:27.730Z,19.57
2017-11-17T05:10:55.825Z,17.67
2017-11-17T05:13:23.521Z,18.70
2017-11-17T05:15:52.606Z,20.20
2017-11-17T05:18:20.273Z,19.63
2017-11-17T05:20:52.644Z,22.10
2017-11-17T05:23:20.220Z,22.03
2017-11-17T05:25:47.954Z,23.30
2017-11-17T05:28:15.493Z,22.93
2017-11-17T05:30:43.078Z,20.73
2017-11-17T05:33:10.800Z,21.63
2017-11-17T05:35:41.711Z,22.80
2017-11-17T05:38:12.743Z,22.87
2017-11-17T05:40:40.988Z,22.33
2017-11-17T05:43:08.501Z,23.33
2017-11-17T05:45:36.810Z,22.13
2017-11-17T05:48:04.322Z,21.70
2017-11-17T05:50:32.345Z,23.23
2017-11-17T05:53:01.446Z,22.30
2017-11-17T05:55:30.053Z,23.60
2017-11-17T05:57:57.625Z,24.13
2017-11-17T06:00:25.607Z,22.73
2017-11-17T06:02:53.954Z,23.33
2017-11-17T06:05:21.965Z,23.80
2017-11-17T06:07:49.601Z,24.13
2017-11-17T06:10:17.151Z,21.93
2017-11-17T06:12:45.035Z,22.40
2017-11-17T06:15:12.676Z,21.83
2017-11-17T06:17:40.812Z,22.80
2017-11-17T06:20:10.469Z,22.70
2017-11-17T06:22:39.160Z,21.23
2017-11-17T06:25:06.748Z,22.43
2017-11-17T06:27:35.111Z,23.77
2017-11-17T06:30:02.684Z,21.23
2017-11-17T06:32:30.300Z,22.03
2017-11-17T06:34:57.824Z,22.07
2017-11-17T06:37:26.122Z,21.30
2017-11-17T06:39:53.664Z,22.60
2017-11-17T06:42:21.957Z,23.00
2017-11-17T06:44:49.487Z,22.33
2017-11-17T06:47:17.166Z,24.57
2017-11-17T06:49:44.752Z,21.90
2017-11-17T06:52:12.246Z,21.67
2017-11-17T06:54:39.787Z,21.83
2017-11-17T06:57:07.502Z,20.40
2017-11-17T06:59:35.017Z,20.10
2017-11-17T07:02:02.559Z,20.63
2017-11-17T07:04:30.100Z,20.33
2017-11-17T07:06:57.635Z,20.23
2017-11-17T07:09:25.964Z,20.30
2017-11-17T07:11:53.527Z,20.47
2017-11-17T07:14:21.107Z,21.43
2017-11-17T07:16:48.680Z,20.10
2017-11-17T07:19:16.254Z,19.67
2017-11-17T07:21:43.865Z,18.23
2017-11-17T07:24:11.419Z,19.50
2017-11-17T07:26:38.932Z,21.50
2017-11-17T07:29:07.510Z,19.77
2017-11-17T07:31:35.795Z,19.77
2017-11-17T07:34:03.357Z,20.67
2017-11-17T07:36:31.689Z,20.07
2017-11-17T07:38:59.244Z,21.47
2017-11-17T07:41:26.916Z,20.87
2017-11-17T07:43:54.508Z,20.60
2017-11-17T07:46:22.045Z,19.67
2017-11-17T07:48:49.589Z,20.10
2017-11-17T07:51:17.129Z,20.17
2017-11-17T07:53:44.706Z,20.33
2017-11-17T07:56:12.282Z,19.40
2017-11-17T07:58:39.787Z,18.70
2017-11-17T08:01:08.114Z,19.40
2017-11-17T08:03:35.646Z,21.00
2017-11-17T08:06:03.143Z,21.60
2017-11-17T08:08:30.735Z,20.13
2017-11-17T08:10:58.357Z,20.07
2017-11-17T08:13:26.162Z,20.83
2017-11-17T08:15:54.460Z,22.00
2017-11-17T08:18:31.161Z,21.47
2017-11-17T08:20:58.682Z,21.93
2017-11-17T08:23:26.241Z,20.90
2017-11-17T08:25:53.763Z,20.97
2017-11-17T08:28:21.609Z,20.70
2017-11-17T08:30:49.674Z,20.47
2017-11-17T08:33:17.251Z,21.50
2017-11-17T08:35:44.900Z,19.23
2017-11-17T08:38:12.511Z,18.70
2017-11-17T08:40:40.948Z,19.50
2017-11-17T08:43:08.585Z,18.40
2017-11-17T08:45:36.362Z,18.57
2017-11-17T08:48:03.943Z,20.17
2017-11-17T08:50:31.518Z,18.63
2017-11-17T08:52:59.055Z,19.97
2017-11-17T08:55:26.645Z,19.30
2017-11-17T08:57:54.989Z,22.77
2017-11-17T09:00:22.844Z,20.00
2017-11-17T09:02:51.463Z,19.40
2017-11-17T09:05:20.262Z,19.17
2017-11-17T09:07:47.837Z,19.47
2017-11-17T09:10:16.158Z,19.83
2017-11-17T09:12:43.736Z,18.67
2017-11-17T09:15:11.265Z,17.67
2017-11-17T09:17:38.793Z,18.20
2017-11-17T09:20:07.526Z,17.87
2017-11-17T09:22:35.062Z,16.67
2017-11-17T09:25:02.634Z,15.73
2017-11-17T09:27:30.201Z,16.13
2017-11-17T09:29:57.775Z,15.97
2017-11-17T09:32:25.337Z,16.17
2017-11-17T09:34:52.866Z,15.97
2017-11-17T09:37:20.561Z,15.00
2017-11-17T09:39:48.290Z,16.50
2017-11-17T09:42:15.797Z,16.77
2017-11-17T09:44:43.339Z,17.57
2017-11-17T09:47:13.892Z,17.80
2017-11-17T09:49:41.413Z,17.60
2017-11-17T09:52:09.002Z,19.67
2017-11-17T09:54:36.517Z,17.10
2017-11-17T09:57:04.138Z,18.27
2017-11-17T09:59:31.674Z,18.33
2017-11-17T10:01:59.408Z,18.60
2017-11-17T10:04:26.929Z,18.33
2017-11-17T10:06:55.967Z,17.60
2017-11-17T10:09:23.560Z,17.77
2017-11-17T10:11:51.899Z,17.97
2017-11-17T10:14:19.587Z,18.83
2017-11-17T10:16:47.696Z,19.33
2017-11-17T10:19:15.263Z,20.70
2017-11-17T10:21:44.492Z,18.70
2017-11-17T10:24:12.290Z,18.03
2017-11-17T10:26:39.921Z,18.33
2017-11-17T10:29:08.712Z,17.80
2017-11-17T10:31:36.590Z,19.20
2017-11-17T10:34:04.192Z,18.30
2017-11-17T10:36:32.582Z,17.67
2017-11-17T10:39:00.480Z,19.67
2017-11-17T10:41:28.129Z,19.13
2017-11-17T10:43:58.435Z,19.67
2017-11-17T10:46:27.655Z,20.50
2017-11-17T10:48:55.479Z,19.20
2017-11-17T10:51:26.350Z,19.63
2017-11-17T10:53:54.424Z,19.87
2017-11-17T10:56:32.684Z,20.20
2017-11-17T10:59:03.999Z,19.70
2017-11-17T11:01:32.793Z,19.97
2017-11-17T11:04:00.963Z,18.37
2017-11-17T11:06:28.581Z,18.10
2017-11-17T11:08:57.245Z,19.63
2017-11-17T11:11:30.812Z,18.60
2017-11-17T11:13:59.934Z,18.47
2017-11-17T11:16:27.499Z,18.43
2017-11-17T11:18:55.872Z,18.97
2017-11-17T11:21:23.661Z,18.73
2017-11-17T11:23:51.378Z,19.13
2017-11-17T11:26:18.981Z,18.90
2017-11-17T11:28:46.884Z,19.10
2017-11-17T11:31:15.092Z,18.77
2017-11-17T11:33:42.838Z,18.63
2017-11-17T11:36:11.105Z,22.00
2017-11-17T11:38:39.215Z,20.67
2017-11-17T11:41:08.153Z,23.00
2017-11-17T11:43:38.821Z,18.60
2017-11-17T11:46:06.352Z,18.87
2017-11-17T11:48:33.889Z,18.77
2017-11-17T11:51:02.775Z,18.67
2017-11-17T11:53:31.834Z,19.10
2017-11-17T11:55:59.638Z,18.37
2017-11-17T11:58:27.220Z,18.67
2017-11-17T12:00:55.825Z,17.03
2017-11-17T12:03:23.872Z,17.00
2017-11-17T12:05:51.489Z,17.00
2017-11-17T12:08:19.234Z,19.07
2017-11-17T12:10:46.909Z,17.90
2017-11-17T12:13:14.509Z,19.97
2017-11-17T12:15:42.821Z,17.07
2017-11-17T12:18:10.345Z,18.73
2017-11-17T12:20:38.911Z,18.97
2017-11-17T12:23:07.242Z,19.17
2017-11-17T12:25:35.254Z,18.30
2017-11-17T12:28:02.805Z,19.57
2017-11-17T12:30:30.338Z,17.80
2017-11-17T12:32:57.869Z,18.27
2017-11-17T12:35:25.570Z,18.03
2017-11-17T12:37:53.139Z,17.87
2017-11-17T12:40:21.057Z,18.70
2017-11-17T12:42:50.914Z,19.00
2017-11-17T12:45:18.552Z,16.90
2017-11-17T12:47:46.515Z,17.23
2017-11-17T12:50:17.958Z,15.80
2017-11-17T12:52:45.606Z,16.20
2017-11-17T12:55:14.040Z,16.90
2017-11-17T12:57:42.099Z,18.70
2017-11-17T13:00:10.461Z,18.87
2017-11-17T13:02:38.134Z,18.23
2017-11-17T13:05:09.546Z,19.00
2017-11-17T13:07:37.242Z,16.13
2017-11-17T13:10:06.046Z,16.07
2017-11-17T13:12:33.596Z,15.50
2017-11-17T13:15:01.146Z,16.90
2017-11-17T13:17:28.865Z,16.90
2017-11-17T13:19:56.417Z,17.33
2017-11-17T13:22:24.729Z,17.77
2017-11-17T13:24:52.521Z,16.10
2017-11-17T13:27:20.624Z,16.80
2017-11-17T13:29:48.199Z,17.60
2017-11-17T13:32:25.255Z,16.03
2017-11-17T13:34:53.821Z,15.50
2017-11-17T13:37:21.372Z,15.00
2017-11-17T13:39:48.868Z,15.03
2017-11-17T13:42:16.811Z,15.80
2017-11-17T13:44:44.393Z,16.97
2017-11-17T13:47:11.936Z,17.43
2017-11-17T13:49:39.913Z,15.80
2017-11-17T13:52:07.465Z,17.03
2017-11-17T13:54:35.030Z,16.23
2017-11-17T13:57:04.413Z,17.20
2017-11-17T13:59:34.774Z,17.43
2017-11-17T14:02:02.408Z,17.13
2017-11-17T14:04:30.074Z,16.30
2017-11-17T14:06:57.705Z,17.60
2017-11-17T14:09:25.285Z,17.17
2017-11-17T14:11:52.894Z,15.83
2017-11-17T14:14:20.549Z,18.20
2017-11-17T14:16:48.083Z,17.07
2017-11-17T14:19:15.662Z,18.10
2017-11-17T14:21:43.260Z,16.17
2017-11-17T14:24:11.574Z,18.60
2017-11-17T14:26:39.119Z,17.50
2017-11-17T14:29:06.709Z,18.10
2017-11-17T14:31:34.515Z,17.17
2017-11-17T14:34:02.197Z,17.57
2017-11-17T14:36:29.866Z,19.37
2017-11-17T14:38:57.462Z,18.73
2017-11-17T14:41:25.125Z,19.50
2017-11-17T14:43:53.287Z,17.13
2017-11-17T14:46:21.103Z,17.57
2017-11-17T14:48:49.534Z,17.13
2017-11-17T14:51:17.348Z,17.97
2017-11-17T14:53:45.671Z,18.37
2017-11-17T14:56:14.150Z,19.03
2017-11-17T14:58:41.709Z,18.90
2017-11-17T15:01:10.257Z,17.20
2017-11-17T15:03:38.643Z,18.10
2017-11-17T15:06:06.207Z,18.90
2017-11-17T15:08:33.789Z,17.80
2017-11-17T15:11:02.292Z,17.63
2017-11-17T15:13:29.822Z,17.70
2017-11-17T15:15:57.353Z,17.60
2017-11-17T15:18:24.964Z,18.47
2017-11-17T15:20:52.488Z,16.97
2017-11-17T15:23:20.025Z,18.27
2017-11-17T15:25:47.559Z,17.60
2017-11-17T15:28:19.172Z,18.27
2017-11-17T15:30:46.820Z,17.67
2017-11-17T15:33:14.398Z,17.97
2017-11-17T15:35:41.949Z,19.70
2017-11-17T15:38:09.601Z,19.30
2017-11-17T15:40:37.164Z,18.10
2017-11-17T15:43:04.743Z,19.53
2017-11-17T15:45:32.699Z,18.07
2017-11-17T15:48:00.278Z,18.00
2017-11-17T15:50:27.863Z,18.70
2017-11-17T15:52:55.444Z,19.27
2017-11-17T15:55:22.989Z,18.70
2017-11-17T15:57:50.588Z,18.67
2017-11-17T16:00:18.403Z,17.70
2017-11-17T16:02:45.941Z,19.00
2017-11-17T16:05:13.518Z,17.97
2017-11-17T16:07:41.253Z,18.60
2017-11-17T16:10:08.880Z,18.53
2017-11-17T16:12:36.470Z,19.20
2017-11-17T16:15:04.936Z,18.33
2017-11-17T16:17:32.571Z,19.20
2017-11-17T16:20:00.937Z,19.20
2017-11-17T16:22:30.542Z,19.03
2017-11-17T16:24:58.193Z,18.13
2017-11-17T16:27:25.753Z,19.00
2017-11-17T16:29:53.835Z,17.10
2017-11-17T16:32:25.087Z,19.77
2017-11-17T16:34:54.301Z,19.30
2017-11-17T16:37:23.436Z,18.80
2017-11-17T16:39:51.129Z,19.50
2017-11-17T16:42:18.777Z,19.87
2017-11-17T16:44:47.235Z,19.10
2017-11-17T16:47:19.865Z,18.70
2017-11-17T16:49:51.623Z,19.00
2017-11-17T16:52:22.132Z,19.60
2017-11-17T16:54:49.694Z,18.97
2017-11-17T16:57:17.209Z,20.60
2017-11-17T16:59:44.843Z,21.10
2017-11-17T17:02:12.372Z,20.53
2017-11-17T17:04:40.069Z,18.77
2017-11-17T17:07:07.886Z,19.40
2017-11-17T17:09:37.191Z,18.90
2017-11-17T17:12:09.546Z,20.63
2017-11-17T17:14:38.804Z,18.77
2017-11-17T17:17:08.293Z,19.90
2017-11-17T17:19:36.234Z,21.93
2017-11-17T17:22:04.054Z,19.23
2017-11-17T17:24:32.002Z,20.53
2017-11-17T17:26:59.659Z,21.93
2017-11-17T17:29:32.081Z,18.83
2017-11-17T17:31:59.870Z,20.77
2017-11-17T17:34:27.435Z,22.53
2017-11-17T17:36:54.988Z,18.53
2017-11-17T17:39:22.603Z,19.87
2017-11-17T17:41:51.690Z,20.20
2017-11-17T17:44:19.238Z,20.27
2017-11-17T17:46:47.511Z,20.57
2017-11-17T17:49:15.064Z,21.17
2017-11-17T17:51:42.893Z,21.30
2017-11-17T17:54:10.493Z,20.40
2017-11-17T17:56:38.077Z,20.40
2017-11-17T17:59:05.846Z,19.93
2017-11-17T18:01:33.397Z,20.93
2017-11-17T18:04:00.954Z,21.00
2017-11-17T18:06:28.510Z,22.13
2017-11-17T18:08:56.056Z,20.03
2017-11-17T18:11:23.656Z,21.30
2017-11-17T18:13:53.954Z,22.53
2017-11-17T18:16:21.592Z,21.73
2017-11-17T18:18:49.898Z,23.87
2017-11-17T18:21:17.429Z,22.80
2017-11-17T18:23:45.012Z,22.33
2017-11-17T18:26:12.651Z,21.77
2017-11-17T18:28:40.948Z,24.87
2017-11-17T18:31:08.495Z,22.40
2017-11-17T18:33:36.044Z,24.23
2017-11-17T18:36:03.624Z,23.57
2017-11-17T18:38:31.192Z,24.70
2017-11-17T18:40:58.801Z,24.03
2017-11-17T18:43:26.340Z,22.97
2017-11-17T18:45:54.056Z,24.37
2017-11-17T18:48:21.635Z,24.30
2017-11-17T18:50:49.212Z,22.67
2017-11-17T18:53:19.677Z,23.17
2017-11-17T18:55:47.230Z,23.50
2017-11-17T18:58:14.828Z,24.50
2017-11-17T19:00:42.711Z,25.07
2017-11-17T19:03:11.913Z,23.77
2017-11-17T19:05:41.401Z,21.83
2017-11-17T19:08:08.877Z,23.03
2017-11-17T19:10:36.487Z,20.67
2017-11-17T19:13:04.106Z,20.47
2017-11-17T19:15:32.545Z,20.77
2017-11-17T19:18:00.836Z,20.47
2017-11-17T19:20:28.416Z,20.80
2017-11-17T19:22:55.992Z,20.40
2017-11-17T19:25:24.241Z,19.17
2017-11-17T19:27:52.372Z,20.57
2017-11-17T19:30:19.928Z,20.10
2017-11-17T19:32:48.284Z,18.73
2017-11-17T19:35:17.842Z,19.73
2017-11-17T19:37:45.698Z,19.87
2017-11-17T19:40:13.295Z,18.17
2017-11-17T19:42:40.821Z,19.40
2017-11-17T19:45:09.309Z,18.87
2017-11-17T19:47:36.828Z,17.97
2017-11-17T19:50:06.169Z,17.10
2017-11-17T19:52:34.182Z,19.00
2017-11-17T19:55:01.754Z,18.20
2017-11-17T19:57:30.655Z,19.80
2017-11-17T19:59:58.986Z,21.03
2017-11-17T20:02:26.553Z,18.43
2017-11-17T20:04:54.758Z,20.37
2017-11-17T20:07:22.382Z,19.60
2017-11-17T20:09:49.923Z,20.40
2017-11-17T20:12:17.484Z,17.87
2017-11-17T20:14:45.639Z,19.37
2017-11-17T20:17:13.170Z,19.53
2017-11-17T20:19:40.928Z,19.20
2017-11-17T20:22:09.259Z,19.60
2017-11-17T20:24:36.837Z,20.83
2017-11-17T20:27:04.762Z,20.53
2017-11-17T20:29:32.438Z,19.73
2017-11-17T20:32:00.315Z,20.93
2017-11-17T20:34:27.889Z,21.47
2017-11-17T20:36:56.040Z,19.83
2017-11-17T20:39:23.700Z,19.80
2017-11-17T20:41:51.246Z,20.67
2017-11-17T20:44:19.687Z,20.67
2017-11-17T20:46:47.984Z,19.87
2017-11-17T20:49:15.659Z,21.03
2017-11-17T20:51:43.889Z,20.20
2017-11-17T20:54:11.461Z,20.60
2017-11-17T20:56:39.667Z,20.87
2017-11-17T20:59:07.281Z,21.27
2017-11-17T21:01:34.892Z,20.40
2017-11-17T21:04:03.118Z,22.37
2017-11-17T21:06:31.397Z,20.00
2017-11-17T21:08:58.984Z,21.40
2017-11-17T21:11:26.559Z,21.13
2017-11-17T21:13:54.095Z,20.77
2017-11-17T21:16:21.654Z,20.80
2017-11-17T21:18:50.074Z,22.63
2017-11-17T21:21:17.696Z,22.30
2017-11-17T21:23:45.288Z,21.10
2017-11-17T21:26:14.815Z,22.03
2017-11-17T21:28:43.212Z,21.90
2017-11-17T21:31:10.927Z,22.13
2017-11-17T21:33:39.095Z,21.17
2017-11-17T21:36:08.226Z,22.50
2017-11-17T21:38:36.077Z,20.73
2017-11-17T21:41:03.661Z,23.67
2017-11-17T21:43:32.446Z,21.97
2017-11-17T21:46:00.144Z,23.40
2017-11-17T21:48:27.832Z,21.77
2017-11-17T21:50:55.411Z,21.97
2017-11-17T21:53:22.998Z,23.30
2017-11-17T21:55:50.611Z,20.97
2017-11-17T21:58:19.580Z,20.40
2017-11-17T22:00:47.871Z,23.40
2017-11-17T22:03:15.462Z,22.73
2017-11-17T22:05:43.040Z,20.90
2017-11-17T22:08:10.590Z,19.80
2017-11-17T22:10:38.540Z,21.13
2017-11-17T22:13:06.901Z,20.17
2017-11-17T22:15:34.472Z,20.63
2017-11-17T22:18:02.934Z,20.30
2017-11-17T22:20:31.292Z,20.13
2017-11-17T22:22:59.741Z,20.67
2017-11-17T22:25:27.336Z,19.60
2017-11-17T22:27:55.678Z,20.60
2017-11-17T22:30:23.421Z,20.70
2017-11-17T22:32:50.964Z,22.70
2017-11-17T22:35:18.595Z,20.97
2017-11-17T22:37:46.213Z,21.13
2017-11-17T22:40:13.804Z,23.70
2017-11-17T22:42:41.366Z,21.63
2017-11-17T22:45:09.298Z,21.63
2017-11-17T22:47:37.392Z,19.80
2017-11-17T22:50:05.578Z,21.80
2017-11-17T22:52:33.158Z,22.90
2017-11-17T22:55:00.781Z,22.10
2017-11-17T22:57:28.360Z,21.13
2017-11-17T22:59:57.068Z,22.20
2017-11-17T23:02:25.270Z,22.80
2017-11-17T23:04:52.777Z,22.57
2017-11-17T23:07:21.077Z,23.10
2017-11-17T23:09:50.008Z,21.43
2017-11-17T23:12:17.677Z,21.53
2017-11-17T23:14:45.676Z,21.07
2017-11-17T23:17:14.252Z,23.80
2017-11-17T23:19:41.985Z,22.70
2017-11-17T23:22:10.329Z,21.27
2017-11-17T23:24:38.403Z,20.73
2017-11-17T23:27:06.775Z,20.60
2017-11-17T23:29:34.326Z,20.67
2017-11-17T23:32:02.841Z,21.50
2017-11-17T23:34:31.172Z,21.30
2017-11-17T23:36:59.275Z,20.60
2017-11-17T23:39:27.539Z,20.43
2017-11-17T23:41:55.890Z,20.60
2017-11-17T23:44:23.495Z,20.27
2017-11-17T23:46:51.888Z,20.70
2017-11-17T23:49:19.424Z,20.30
2017-11-17T23:51:49.803Z,20.43
2017-11-17T23:54:17.892Z,20.80
2017-11-17T23:56:45.622Z,20.80
2017-11-17T23:59:13.158Z,22.10
